罗盘
风向 的 风向 的 风向 到 风向 320° Stadtlohn-Vreden Airfield 11/29
风: 7 kt, 3 beaufort

6 kt

4 kt
改变
0 1.000 2.000 3.000 4.000 5.000
FEW 2.800 ft
METAR EDDG 251120Z AUTO 32007KT 270V010 9999 FEW028 16/09 Q1014 NOSIG

METAR Stadtlohn-Vreden Airfield - EDLS

Stadtlohn-Vreden Airfield是Stadtlohn,德国中的小机场。 该机场有一条跑道: 11/29. 该领域的国际民航组织标志是EDLS.

这份报告是针对2022年9月25日 13:20, 当地时间在Münster Osnabrück Airport进行的。

机场观察

风向为320°,速度为7 kt。 风向在270°和010°之间变化。

可见度为10 km 或者更多。

有几云在2.800 ft的高度。 没有观察到天花板。

温度和风寒是16 °C。 露点为9 °C,相对湿度为63%。 海平面上的气压为1014 hPa (QNH)。

白天

今天,太阳从07:23升起,在19:24降落。 这适用于Stadtlohn-Vreden Airfield,世界夏令时可能有所不同。 当地时间与世界标准时间之间的时差为+2 小时。 夏令时目前正在进行中。

公司介绍

在这个机场,你可以找到飞行学校 和 跳伞中心。 这个机场上的公司有Vliegles.nl 和 Skydive Stadtlohn。

体会

在这个机场有飞行课程。 你可以在没有任何经验的情况下预订飞行课程。 在Stadtlohn-Vreden Airfield预订最多的飞行课程类型是Basic flying lesson Stadtlohn。 这些课程的价格从€ 99开始。 在这里阅读更多关于Basic flying lesson Stadtlohn的信息。你也可以在这个网站上进行预订。

跑道

Id 标题 侧风 逆风 侧风 %
11/29 108°-288° 4 kt 6 kt 53 %

逆风成分最大的方向会被突出显示,并用于横风计算。 这并不一定意味着这个方向在使用。

乌云

2.800 ft FEW 几云

温度 & 天气

温度 16 °C
露点 9 °C
相对湿度 63%
Kp-index 1  

白天

日出
07:20
中午
13:20
日落
19:21 (5h 21m)

小工具

你想在你的网站上有一个关于Stadtlohn-Vreden Airfield的当前航空天气(METAR)的小部件吗?

</> 显示HTML代码

我们和第三方通过cookies跟踪您在我们网站上的上网行为。如果您继续,我们认为您同意我们的cookie政策。 了解更多